• Join FlightAware (Why Join?)
  • Login
  • US Flag 
03:28AM EDT


 

Airport Tracker/Info


-or-


 

Live Flight TrackerFlight Track Log ✈ N4380Y ✈ 04-Jan-2014 ✈ KMKY - KFSD

Flight Track Log - Related Links

Times and Time Zones

All times are in EST time to prevent confusion due to time zone crossing. See the N4380Y flight status page for this flight to view local times or setup timezone preferences in your user account.

Time Position Orientation Groundspeed Altitude Reporting Facility
EST Latitude Longitude Course Direction KTS MPH feet Rate Location/Type
12:55PM 26.1047 -81.6964 355° North 156 180 5,300  Level Miami Center
12:56PM 26.1506 -81.7006 355° North 178 205 7,100 1,800 Climbing Miami Center
12:57PM 26.2003 -81.7094 351° North 195 224 9,000 1,440 Climbing Miami Center
12:58PM 26.2522 -81.7186 351° North 201 231 10,000 540 Climbing Miami Center
12:59PM 26.3228 -81.7308 351° North 232 267 10,100 960 Climbing Miami Center
01:00PM 26.3811 -81.7400 352° North 232 267 12,000 660 Climbing Miami Center
01:06PM 26.8128 -81.8130 352° North 266 306 14,800 360 Climbing FlightAware ADS-B (KMCO)
01:07PM 26.9019 -81.8281 351° North 269 310 14,800 480 Level FlightAware ADS-B (KMCO)
01:08PM 26.9502 -81.8362 352° North 238 274 15,800 1,500 Climbing FlightAware ADS-B (KMCO)
01:08PM 26.9915 -81.8431 351° North 235 270 16,800 660 Climbing FlightAware ADS-B (KMCO)
01:09PM 27.0520 -81.8536 351° North 264 304 16,800  Level FlightAware ADS-B (KMCO)
01:10PM 27.1001 -81.8618 351° North 270 311 16,800  Level FlightAware ADS-B (KMCO)
01:11PM 27.1458 -81.8695 351° North 275 316 16,800  Level FlightAware ADS-B (KMCO)
01:11PM 27.2011 -81.8790 351° North 276 318 16,800  Level FlightAware ADS-B (KMCO)
01:12PM 27.2487 -81.8871 351° North 275 316 16,800  Level FlightAware ADS-B (KMCO)
01:12PM 27.2764 -81.8857 North 279 321 16,800  Level FlightAware ADS-B (KMCO)
01:13PM 27.3159 -81.8787 North 277 319 16,800  Level FlightAware ADS-B (KMCO)
01:14PM 27.3660 -81.8705 North 278 320 16,800 420 Level FlightAware ADS-B (KMCO)
01:14PM 27.4155 -81.8626 North 257 296 17,400 1,260 Climbing FlightAware ADS-B (KMCO)
01:15PM 27.4498 -81.8555 10° North 241 277 18,300 1,860 Climbing FlightAware ADS-B (KMCO)
01:15PM 27.4815 -81.8527 North 224 258 19,300 1,800 Climbing FlightAware ADS-B (KMCO)
01:15PM 27.4970 -81.8551 352° North 207 238 19,700 1,380 Climbing FlightAware ADS-B (KMCO)
01:16PM 27.5370 -81.8688 343° North 208 239 20,700 1,140 Climbing FlightAware ADS-B (KMCO)
01:17PM 27.5754 -81.8812 344° North 224 258 21,300 900 Climbing FlightAware ADS-B (KMCO)
01:18PM 27.6162 -81.8943 344° North 234 269 21,900 960 Climbing FlightAware ADS-B (KMCO)
01:18PM 27.6413 -81.9023 344° North 239 275 22,600 960 Climbing FlightAware ADS-B (KMCO)
01:19PM 27.7173 -81.9267 344° North 243 280 23,500 960 Climbing FlightAware ADS-B (KMCO)
01:20PM 27.7730 -81.9447 344° North 246 283 24,400 960 Climbing FlightAware ADS-B (KMCO)
01:21PM 27.8137 -81.9580 344° North 246 283 25,000 960 Climbing FlightAware ADS-B (KMCO)
01:21PM 27.8657 -81.9748 344° North 247 284 25,700 960 Climbing FlightAware ADS-B (KMCO)
01:22PM 27.8997 -81.9858 344° North 249 287 26,300 900 Climbing FlightAware ADS-B (KMCO)
01:23PM 27.9557 -82.0040 344° North 252 290 26,900 780 Climbing FlightAware ADS-B (KMCO)
01:23PM 27.9965 -82.0200 341° North 234 269 27,500 840 Climbing FlightAware ADS-B (KMCO)
01:24PM 28.0270 -82.0398 330° Northwest 236 272 27,900 840 Climbing FlightAware ADS-B (KMCO)
01:25PM 28.0649 -82.0637 331° Northwest 239 275 28,500 720 Climbing FlightAware ADS-B (KMCO)
01:25PM 28.1021 -82.0872 331° Northwest 245 282 28,900 540 Climbing FlightAware ADS-B (KMCO)
01:26PM 28.1432 -82.1132 331° Northwest 250 288 29,300 600 Climbing FlightAware ADS-B (KMCO)
01:27PM 28.1840 -82.1390 331° Northwest 251 289 29,700 420 Climbing FlightAware ADS-B (KMCO)
01:27PM 28.2419 -82.1757 331° Northwest 265 305 30,000 180 Climbing FlightAware ADS-B (KMCO)
01:28PM 28.2879 -82.2052 331° Northwest 282 325 30,000 240 Level FlightAware ADS-B (KMCO)
01:29PM 28.3246 -82.2283 331° Northwest 279 321 30,300 660 Climbing FlightAware ADS-B (KMCO)
01:30PM 28.3766 -82.2608 331° Northwest 268 308 30,900 720 Climbing FlightAware ADS-B (KMCO)
01:31PM 28.4426 -82.3027 331° Northwest 257 296 31,700 660 Climbing FlightAware ADS-B (KMCO)
01:31PM 28.4859 -82.3305 331° Northwest 262 302 32,000 180 Climbing FlightAware ADS-B (KMCO)
01:32PM 28.5300 -82.3593 330° Northwest 279 321 32,000  Level FlightAware ADS-B (KMCO)
01:33PM 28.5720 -82.3861 331° Northwest 290 334 32,000  Level FlightAware ADS-B (KMCO)
01:33PM 28.6115 -82.4110 331° Northwest 295 339 32,000  Level FlightAware ADS-B (KMCO)
01:34PM 28.6759 -82.4519 331° Northwest 294 338 32,000  Level FlightAware ADS-B (KMCO)
01:35PM 28.7099 -82.4737 331° Northwest 294 338 32,000 240 Level FlightAware ADS-B (KMCO)
01:35PM 28.7532 -82.5012 331° Northwest 283 326 32,300 660 Climbing FlightAware ADS-B (KMCO)
01:36PM 28.7981 -82.5297 331° Northwest 269 310 32,800 660 Climbing FlightAware ADS-B (KMCO)
01:36PM 28.8460 -82.5605 331° Northwest 255 293 33,300 480 Climbing FlightAware ADS-B (KMCO)
01:38PM 28.9367 -82.6192 330° Northwest 247 284 34,000 240 Climbing FlightAware ADS-B (KMCO)
01:39PM 29.0112 -82.6677 330° Northwest 259 298 34,000  Level FlightAware ADS-B (KMCO)
01:40PM 29.0565 -82.6969 331° Northwest 275 316 34,000  Level FlightAware ADS-B (KMCO)
01:41PM 29.0982 -82.7237 331° Northwest 280 322 34,000  Level FlightAware ADS-B (KMCO)
01:42PM 29.1761 -82.7742 331° Northwest 292 336 34,000  Level FlightAware ADS-B (KMCO)
01:43PM 29.2879 -82.8463 331° Northwest 299 344 34,000  Level FlightAware ADS-B (KMCO)
01:44PM 29.3499 -82.8865 331° Northwest 299 344 34,000  Level FlightAware ADS-B (KMCO)
01:45PM 29.3909 -82.9132 330° Northwest 301 346 34,000  Level FlightAware ADS-B (KMCO)
01:45PM 29.4231 -82.9356 330° Northwest 289 333 34,000  Level Jacksonville Center
01:46PM 29.4983 -82.9856 330° Northwest 296 341 34,000  Level Jacksonville Center
01:47PM 29.5733 -83.0358 330° Northwest 307 353 34,000  Level Jacksonville Center
01:48PM 29.6442 -83.0861 328° Northwest 307 353 34,000  Level Jacksonville Center
01:49PM 29.7089 -83.1389 325° Northwest 297 342 34,000  Level Jacksonville Center
01:50PM 29.7756 -83.1892 327° Northwest 285 328 34,000  Level Jacksonville Center
01:51PM 29.8422 -83.2422 325° Northwest 285 328 34,000  Level Jacksonville Center
01:57PM 30.2207 -83.5392 325° Northwest 293 337 34,000  Level FlightAware ADS-B (KTLH)
01:57PM 30.2572 -83.5682 325° Northwest 298 343 34,000  Level FlightAware ADS-B (KTLH)
01:58PM 30.3186 -83.6171 326° Northwest 298 343 34,000  Level FlightAware ADS-B (KTLH)
01:59PM 30.3778 -83.6644 325° Northwest 301 346 34,000  Level FlightAware ADS-B (KTLH)
02:00PM 30.4550 -83.7259 326° Northwest 299 344 34,000  Level FlightAware ADS-B (KTLH)
02:01PM 30.4999 -83.7618 325° Northwest 298 343 34,000  Level FlightAware ADS-B (KTLH)
02:02PM 30.5481 -83.8004 325° Northwest 297 342 34,000  Level FlightAware ADS-B (KTLH)
02:02PM 30.5944 -83.8375 325° Northwest 297 342 34,000  Level FlightAware ADS-B (KTLH)
02:03PM 30.6402 -83.8744 325° Northwest 297 342 34,000  Level FlightAware ADS-B (KTLH)
02:03PM 30.6778 -83.9047 325° Northwest 297 342 34,000  Level FlightAware ADS-B (KTLH)
02:04PM 30.7259 -83.9434 325° Northwest 300 345 34,000  Level FlightAware ADS-B (KTLH)
02:05PM 30.7742 -83.9823 325° Northwest 300 345 34,000  Level FlightAware ADS-B (KTLH)
02:06PM 30.8221 -84.0210 325° Northwest 300 345 34,000  Level FlightAware ADS-B (KTLH)
02:06PM 30.8668 -84.0570 325° Northwest 301 346 34,000  Level FlightAware ADS-B (KTLH)
02:07PM 30.9078 -84.0902 325° Northwest 300 345 34,000  Level FlightAware ADS-B (KTLH)
02:08PM 30.9593 -84.1318 325° Northwest 299 344 34,000  Level FlightAware ADS-B (KTLH)
02:08PM 30.9967 -84.1621 325° Northwest 299 344 34,000  Level FlightAware ADS-B (KTLH)
02:09PM 31.0480 -84.2037 325° Northwest 297 342 34,000  Level FlightAware ADS-B (KTLH)
02:10PM 31.1048 -84.2499 325° Northwest 297 342 34,000  Level FlightAware ADS-B (KTLH)
02:10PM 31.1489 -84.2858 325° Northwest 297 342 34,000  Level FlightAware ADS-B (KTLH)
02:12PM 31.2575 -84.3744 325° Northwest 298 343 34,000  Level FlightAware ADS-B (KTLH)
02:13PM 31.3311 -84.4345 325° Northwest 298 343 34,000  Level FlightAware ADS-B (KTLH)
02:14PM 31.3692 -84.4657 325° Northwest 299 344 34,000  Level FlightAware ADS-B (KTLH)
02:15PM 31.4158 -84.5039 325° Northwest 298 343 34,000  Level FlightAware ADS-B (KTLH)
02:16PM 31.5253 -84.5938 325° Northwest 299 344 34,000  Level FlightAware ADS-B (KTLH)
02:17PM 31.5546 -84.6180 325° Northwest 299 344 34,000  Level FlightAware ADS-B (KTLH)
02:18PM 31.6508 -84.7025 325° Northwest 299 344 34,000  Level Atlanta Center
02:19PM 31.7175 -84.7567 325° Northwest 294 338 34,000  Level Atlanta Center
02:20PM 31.7858 -84.8133 325° Northwest 294 338 34,000  Level Atlanta Center
02:21PM 31.8544 -84.8678 326° Northwest 294 338 34,000  Level Atlanta Center
02:22PM 31.9208 -84.9247 324° Northwest 299 344 34,000  Level Atlanta Center
02:23PM 31.9894 -84.9792 326° Northwest 294 338 34,000  Level Atlanta Center
02:24PM 32.0556 -85.0386 323° Northwest 294 338 34,000  Level Atlanta Center
02:25PM 32.1242 -85.0958 325° Northwest 299 344 34,000  Level Atlanta Center
02:26PM 32.2008 -85.1533 328° Northwest 294 338 34,000  Level Atlanta Center
02:27PM 32.2669 -85.2106 324° Northwest 294 338 34,000  Level Atlanta Center
02:28PM 32.3333 -85.2656 325° Northwest 294 338 34,000  Level Atlanta Center
02:29PM 32.3994 -85.3206 325° Northwest 294 338 34,000  Level Atlanta Center
02:30PM 32.4678 -85.3781 325° Northwest 294 338 34,000  Level Atlanta Center
02:31PM 32.5319 -85.4308 325° Northwest 294 338 34,000  Level Atlanta Center
02:32PM 32.5939 -85.4836 324° Northwest 294 338 34,000  Level Atlanta Center
02:33PM 32.6622 -85.5414 325° Northwest 294 338 34,000  Level Atlanta Center
02:34PM 32.7283 -85.5994 324° Northwest 294 338 34,000  Level Atlanta Center
02:35PM 32.7942 -85.6550 325° Northwest 294 338 34,000  Level Atlanta Center
02:36PM 32.8625 -85.7106 326° Northwest 294 338 34,000  Level Atlanta Center
02:37PM 32.9283 -85.7689 323° Northwest 294 338 34,000  Level Atlanta Center
02:38PM 32.9944 -85.8194 327° Northwest 291 335 34,000  Level Atlanta Center
02:39PM 33.0625 -85.8828 322° Northwest 291 335 34,000  Level Atlanta Center
02:40PM 33.1283 -85.9389 324° Northwest 291 335 34,000  Level Atlanta Center
02:41PM 33.1942 -85.9950 325° Northwest 291 335 34,000  Level Atlanta Center
02:42PM 33.2622 -86.0536 324° Northwest 296 341 34,000  Level Atlanta Center
02:43PM 33.3281 -86.1147 322° Northwest 296 341 34,000  Level Atlanta Center
02:44PM 33.3981 -86.1711 326° Northwest 296 341 34,000  Level Atlanta Center
02:45PM 33.4639 -86.2300 323° Northwest 291 335 34,000  Level Atlanta Center
02:46PM 33.5294 -86.2867 324° Northwest 291 335 34,000  Level Atlanta Center
02:47PM 33.5972 -86.3481 323° Northwest 291 335 34,000  Level Atlanta Center
02:48PM 33.6631 -86.4050 324° Northwest 291 335 34,000  Level Atlanta Center
02:49PM 33.7308 -86.4642 324° Northwest 296 341 34,000  Level Atlanta Center
02:50PM 33.7942 -86.5208 323° Northwest 296 341 34,000  Level Atlanta Center
02:51PM 33.8600 -86.5778 324° Northwest 296 341 34,000  Level Atlanta Center
02:52PM 33.9275 -86.6375 324° Northwest 296 341 34,000  Level Atlanta Center
02:53PM 33.9931 -86.6947 324° Northwest 296 341 34,000  Level Atlanta Center
02:55PM 34.1072 -86.7953 324° Northwest 289 333 34,000  Level Memphis Center
02:56PM 34.1719 -86.8525 324° Northwest 289 333 34,000  Level Memphis Center
02:57PM 34.2367 -86.9097 324° Northwest 289 333 34,000  Level Memphis Center
02:58PM 34.3142 -86.9789 324° Northwest 289 333 34,000  Level Memphis Center
02:59PM 34.3786 -87.0369 323° Northwest 290 334 34,000  Level Memphis Center
03:00PM 34.4433 -87.0944 324° Northwest 290 334 34,000  Level Memphis Center
03:01PM 34.5094 -87.1522 324° Northwest 293 337 34,000  Level Memphis Center
03:02PM 34.5769 -87.2131 323° Northwest 292 336 34,000  Level Memphis Center
03:03PM 34.6389 -87.2689 323° Northwest 292 336 34,000  Level Memphis Center
03:04PM 34.7164 -87.3389 323° Northwest 292 336 34,000  Level Memphis Center
03:05PM 34.7806 -87.3969 323° Northwest 290 334 34,000  Level Memphis Center
03:06PM 34.8456 -87.4550 324° Northwest 292 336 34,000  Level Memphis Center
03:07PM 34.9097 -87.5133 323° Northwest 290 334 34,000  Level Memphis Center
03:08PM 34.9742 -87.5722 323° Northwest 290 334 34,000  Level Memphis Center
03:09PM 35.0511 -87.6425 323° Northwest 289 333 34,000  Level Memphis Center
03:10PM 35.1156 -87.7011 323° Northwest 289 333 34,000  Level Memphis Center
03:11PM 35.1794 -87.7592 323° Northwest 289 333 34,000  Level Memphis Center
03:12PM 35.2436 -87.8172 324° Northwest 287 330 34,000  Level Memphis Center
03:13PM 35.3067 -87.8756 323° Northwest 287 330 34,000  Level Memphis Center
03:14PM 35.3700 -87.9344 323° Northwest 286 329 34,000  Level Memphis Center
03:15PM 35.4442 -88.0014 324° Northwest 288 331 34,000  Level Memphis Center
03:16PM 35.5083 -88.0619 322° Northwest 288 331 34,000  Level Memphis Center
03:17PM 35.5731 -88.1228 323° Northwest 289 333 34,000  Level Memphis Center
03:19PM 35.6344 -88.1786 324° Northwest 290 334 34,000  Level Memphis Center
03:20PM 35.7117 -88.2506 323° Northwest 291 335 34,000  Level Memphis Center
03:21PM 35.7758 -88.3100 323° Northwest 290 334 34,000  Level Memphis Center
03:22PM 35.8403 -88.3692 323° Northwest 289 333 34,000  Level Memphis Center
03:23PM 35.9039 -88.4289 323° Northwest 287 330 34,000  Level Memphis Center
03:24PM 35.9669 -88.4875 323° Northwest 285 328 34,000  Level Memphis Center
03:25PM 36.0286 -88.5461 322° Northwest 281 323 34,000  Level Memphis Center
03:26PM 36.1033 -88.6164 323° Northwest 281 323 34,000  Level Memphis Center
03:27PM 36.1658 -88.6758 322° Northwest 283 326 34,000  Level Memphis Center
03:28PM 36.2283 -88.7347 323° Northwest 282 325 34,000  Level Memphis Center
03:29PM 36.2908 -88.7942 323° Northwest 283 326 34,000  Level Memphis Center
03:30PM 36.3522 -88.8531 322° Northwest 280 322 34,000  Level Memphis Center
03:31PM 36.4147 -88.9103 324° Northwest 281 323 34,000  Level Memphis Center
03:32PM 36.4883 -88.9817 322° Northwest 281 323 34,000  Level Memphis Center
03:33PM 36.5497 -89.0406 322° Northwest 282 325 34,000  Level Memphis Center
03:34PM 36.6111 -89.0989 323° Northwest 281 323 34,000  Level Memphis Center
03:35PM 36.6719 -89.1581 322° Northwest 279 321 34,000  Level Memphis Center
03:36PM 36.7333 -89.2169 322° Northwest 280 322 34,000  Level Memphis Center
03:37PM 36.8072 -89.2875 323° Northwest 279 321 34,000  Level Memphis Center
03:38PM 36.8678 -89.3464 322° Northwest 278 320 34,000  Level Memphis Center
03:39PM 36.9289 -89.4053 322° Northwest 277 319 34,000  Level Memphis Center
03:40PM 36.9897 -89.4647 322° Northwest 278 320 34,000  Level Memphis Center
03:41PM 37.0506 -89.5236 322° Northwest 277 319 34,000  Level Memphis Center
03:42PM 37.1111 -89.5839 322° Northwest 278 320 34,000  Level Memphis Center
03:43PM 37.1839 -89.6536 323° Northwest 276 318 34,000  Level Memphis Center
03:44PM 37.2428 -89.7122 322° Northwest 273 314 34,000  Level Memphis Center
03:45PM 37.3042 -89.7703 323° Northwest 274 315 34,000  Level Kansas City Center
03:47PM 37.3761 -89.8406 322° Northwest 274 315 34,000  Level Kansas City Center
03:48PM 37.4356 -89.8989 322° Northwest 272 313 34,000  Level Kansas City Center
03:49PM 37.4947 -89.9572 322° Northwest 271 312 34,000  Level Kansas City Center
03:50PM 37.5536 -90.0153 322° Northwest 270 311 34,000  Level Kansas City Center
03:51PM 37.6117 -90.0722 322° Northwest 269 310 34,000  Level Kansas City Center
03:52PM 37.6689 -90.1308 321° Northwest 268 308 34,000  Level Kansas City Center
03:53PM 37.7264 -90.1889 321° Northwest 266 306 34,000  Level Kansas City Center
03:54PM 37.7967 -90.2583 322° Northwest 266 306 34,000  Level Kansas City Center
03:55PM 37.8553 -90.3167 322° Northwest 267 307 34,000  Level Kansas City Center
03:56PM 37.9119 -90.3739 321° Northwest 263 303 34,000  Level Kansas City Center
03:57PM 37.9697 -90.4308 322° Northwest 263 303 34,000  Level Kansas City Center
03:58PM 38.0281 -90.4894 322° Northwest 266 306 34,000  Level Kansas City Center
03:59PM 38.0844 -90.5469 321° Northwest 263 303 34,000  Level Kansas City Center
04:00PM 38.1414 -90.6061 321° Northwest 263 303 34,000  Level Kansas City Center
04:01PM 38.2114 -90.6753 322° Northwest 265 305 34,000  Level Kansas City Center
04:02PM 38.2678 -90.7333 321° Northwest 262 302 34,000  Level Kansas City Center
04:03PM 38.3256 -90.7914 322° Northwest 262 302 34,000  Level Kansas City Center
04:04PM 38.3828 -90.8506 321° Northwest 263 303 34,000  Level Kansas City Center
04:05PM 38.4392 -90.9081 321° Northwest 261 300 34,000  Level Kansas City Center
04:06PM 38.4958 -90.9661 321° Northwest 260 299 34,000  Level Kansas City Center
04:07PM 38.5522 -91.0242 321° Northwest 260 299 34,000  Level Kansas City Center
04:08PM 38.6197 -91.0939 321° Northwest 259 298 34,000  Level Kansas City Center
04:09PM 38.6772 -91.1517 322° Northwest 261 300 34,000  Level Kansas City Center
04:10PM 38.7333 -91.2106 321° Northwest 260 299 34,000  Level Kansas City Center
04:11PM 38.7903 -91.2689 321° Northwest 262 302 34,000  Level Kansas City Center
04:12PM 38.8461 -91.3281 320° Northwest 261 300 34,000  Level Kansas City Center
04:13PM 38.9031 -91.3861 322° Northwest 261 300 34,000  Level Kansas City Center
04:14PM 38.9597 -91.4453 321° Northwest 263 303 34,000  Level Kansas City Center
04:15PM 39.0278 -91.5169 321° Northwest 263 303 34,000  Level Kansas City Center
04:16PM 39.0847 -91.5756 321° Northwest 263 303 34,000  Level Kansas City Center
04:17PM 39.1425 -91.6361 321° Northwest 265 305 34,000  Level Kansas City Center
04:19PM 39.1958 -91.6936 320° Northwest 265 305 34,000  Level Kansas City Center
04:20PM 39.2639 -91.7653 321° Northwest 268 308 34,000  Level Kansas City Center
04:21PM 39.3203 -91.8239 321° Northwest 265 305 34,000  Level Kansas City Center
04:22PM 39.3769 -91.8853 320° Northwest 265 305 34,000  Level Kansas City Center
04:23PM 39.4364 -91.9456 322° Northwest 270 311 34,000  Level Kansas City Center
04:24PM 39.4942 -92.0072 321° Northwest 271 312 34,000  Level Kansas City Center
04:25PM 39.5511 -92.0706 319° Northwest 271 312 34,000  Level Kansas City Center
04:26PM 39.6211 -92.1442 321° Northwest 271 312 34,000  Level Kansas City Center
04:27PM 39.6772 -92.2064 320° Northwest 268 308 34,000  Level Kansas City Center
04:28PM 39.7344 -92.2669 321° Northwest 267 307 34,000  Level Kansas City Center
04:29PM 39.7917 -92.3275 321° Northwest 267 307 34,000  Level Kansas City Center
04:31PM 39.9056 -92.4486 321° Northwest 265 305 34,000  Level Chicago Center
04:32PM 39.9722 -92.5214 320° Northwest 265 305 34,000  Level Kansas City Center
04:33PM 40.0289 -92.5822 321° Northwest 264 304 34,000  Level Kansas City Center
04:34PM 40.0894 -92.6472 321° Northwest 264 304 34,000  Level Kansas City Center
04:35PM 40.1433 -92.7053 321° Northwest 263 303 34,000  Level Kansas City Center
04:36PM 40.2056 -92.7742 320° Northwest 263 303 34,000  Level Kansas City Center
04:37PM 40.2597 -92.8336 320° Northwest 264 304 34,000  Level Kansas City Center
04:38PM 40.3144 -92.8936 320° Northwest 267 307 34,000  Level Kansas City Center
04:39PM 40.3783 -92.9636 320° Northwest 269 310 34,000  Level Kansas City Center
04:40PM 40.4331 -93.0233 320° Northwest 268 308 34,000  Level Kansas City Center
04:41PM 40.4950 -93.0922 320° Northwest 266 306 34,000  Level Kansas City Center
04:42PM 40.5508 -93.1539 320° Northwest 264 304 34,000  Level Kansas City Center
04:43PM 40.6056 -93.2178 318° Northwest 265 305 34,000  Level Kansas City Center
04:44PM 40.6622 -93.2783 321° Northwest 264 304 34,000  Level Kansas City Center
04:45PM 40.7181 -93.3397 320° Northwest 263 303 34,000  Level Kansas City Center
04:46PM 40.7606 -93.3889 319° Northwest 261 300 34,000  Level Minneapolis Center
04:47PM 40.8158 -93.4506 320° Northwest 261 300 34,000  Level Minneapolis Center
04:48PM 40.8708 -93.5111 320° Northwest 260 299 34,000  Level Minneapolis Center
04:49PM 40.9153 -93.5600 320° Northwest 261 300 34,000  Level Chicago Center
04:50PM 40.9703 -93.6222 320° Northwest 262 302 34,000  Level Chicago Center
04:51PM 41.0253 -93.6858 319° Northwest 264 304 34,000  Level Chicago Center
04:52PM 41.0797 -93.7478 319° Northwest 260 299 34,000  Level Chicago Center
04:53PM 41.1456 -93.8219 320° Northwest 260 299 34,000  Level Chicago Center
04:54PM 41.2017 -93.8844 320° Northwest 263 303 34,000  Level Chicago Center
04:55PM 41.2581 -93.9481 320° Northwest 266 306 34,000  Level Chicago Center
05:01PM 41.5841 -94.3248 320° Northwest 266 306 34,000  Level FlightAware ADS-B (KMCW)
05:06PM 41.8509 -94.6352 319° Northwest 262 302 34,000  Level FlightAware ADS-B (KMCW)
05:07PM 41.9018 -94.6949 319° Northwest 262 302 34,000  Level FlightAware ADS-B (KMCW)
05:07PM 41.9092 -94.7036 319° Northwest 262 302 34,000  Level FlightAware ADS-B
05:07PM 41.9371 -94.7364 319° Northwest 262 302 34,000  Level FlightAware ADS-B
05:08PM 41.9753 -94.7812 319° Northwest 260 299 34,000  Level FlightAware ADS-B (KMCW)
05:08PM 42.0058 -94.8170 319° Northwest 259 298 34,000  Level FlightAware ADS-B
05:09PM 42.0475 -94.8663 319° Northwest 257 296 34,000  Level FlightAware ADS-B (KMCW)
05:10PM 42.0789 -94.9035 319° Northwest 258 297 34,000  Level FlightAware ADS-B
05:10PM 42.0838 -94.9093 319° Northwest 258 297 34,000 -300 Level FlightAware ADS-B (KMCW)
05:11PM 42.1198 -94.9520 319° Northwest 266 306 33,800 -600 Descending FlightAware ADS-B (KMCW)
05:11PM 42.1620 -95.0025 318° Northwest 283 326 33,200 -1,020 Descending FlightAware ADS-B
05:12PM 42.2154 -95.0658 319° Northwest 292 336 32,200 -1,020 Descending FlightAware ADS-B (KMCW)
05:13PM 42.2666 -95.1266 319° Northwest 298 343 31,500 -1,020 Descending FlightAware ADS-B (KMCW)
05:14PM 42.3059 -95.1733 319° Northwest 300 345 30,800 -1,020 Descending FlightAware ADS-B (KMCW)
05:14PM 42.3342 -95.2070 319° Northwest 298 343 30,400 -1,020 Descending FlightAware ADS-B
05:15PM 42.4097 -95.2973 319° Northwest 295 339 29,100 -1,080 Descending FlightAware ADS-B (KMCW)
05:16PM 42.4709 -95.3708 318° Northwest 293 337 28,100 -1,020 Descending FlightAware ADS-B (KMCW)
05:17PM 42.5075 -95.4149 318° Northwest 290 334 27,500 -1,020 Descending FlightAware ADS-B (KMCW)
05:18PM 42.5433 -95.4578 319° Northwest 282 325 26,800 -1,080 Descending FlightAware ADS-B (KMCW)
05:18PM 42.5756 -95.4966 318° Northwest 274 315 26,100 -1,200 Descending FlightAware ADS-B (KMCW)
05:19PM 42.6186 -95.5489 318° Northwest 269 310 25,400 -1,020 Descending FlightAware ADS-B (KMCW)
05:20PM 42.6579 -95.5968 318° Northwest 268 308 24,800 -900 Descending FlightAware ADS-B (KMCW)
05:21PM 42.7350 -95.6903 318° Northwest 267 307 23,500 -960 Descending Minneapolis Center
05:22PM 42.7931 -95.7597 319° Northwest 275 316 22,500 -1,020 Descending Minneapolis Center
05:23PM 42.8500 -95.8308 318° Northwest 278 320 21,500 -1,020 Descending Minneapolis Center
05:24PM 42.9053 -95.8992 318° Northwest 271 312 20,500 -1,020 Descending Minneapolis Center
05:25PM 42.9594 -95.9644 319° Northwest 263 303 19,500 -1,020 Descending Minneapolis Center
05:26PM 43.0131 -96.0311 318° Northwest 260 299 18,500 -840 Descending Minneapolis Center
05:27PM 43.0692 -96.1003 318° Northwest 267 307 17,800 -1,080 Descending Minneapolis Center
05:28PM 43.1258 -96.1706 318° Northwest 273 314 16,400 -1,440 Descending Minneapolis Center
05:29PM 43.1822 -96.2403 318° Northwest 274 315 14,900 -1,740 Descending Minneapolis Center
05:30PM 43.2506 -96.3247 318° Northwest 274 315 12,900 -1,980 Descending Minneapolis Center
05:31PM 43.3061 -96.3922 319° Northwest 270 311 10,900 -1,980 Descending Minneapolis Center
05:32PM 43.3603 -96.4619 317° Northwest 268 308 8,900 -1,980 Descending Minneapolis Center
05:33PM 43.4058 -96.5383 309° West 263 303 6,900 -1,980 Descending Minneapolis Center
05:34PM 43.4464 -96.6156 306° West 257 296 4,900 -1,620 Descending Minneapolis Center
05:35PM 43.4875 -96.6831 310° West 247 284 3,600 -1,080 Descending Minneapolis Center
05:36PM 43.5336 -96.7086 338° Northwest 203 234 2,800 -720 Descending Minneapolis Center
05:37PM 43.5700 -96.7319 335° Northwest 172 198 2,200 -600 Descending Minneapolis Center
05:39PM 43.5667 -96.7333 270° West  Level FlightAware Approximate
05:46PM 43.5820 -96.7419 270° West  Level Estimated
05:47PM 43.5820 -96.7419 270° West  Level Estimated